Maples, Missouri
Current Conditions -  °F | °C
As of 9:58 AM on Saturday 25 Oct 2014 (Local Time) from KTBN Reporting Station
Clear Clear  
Wind Chill: 20°   Ceiling: Unl
Heat Index: 20°   Visibility: 10mi
Dew Point: 17°   Wind: 8mph
Humidity: 85%   Direction: 270°W
Pressure: 30.08"   Gusts: NA
Location:  37.5023°N, 91.4546°W
Report Text: KTBN 251458Z AUTO 27007KT 10SM CLR 20/17 A3008 RMK AO2 SLP183 T01960170 52012
Loading
Personal Weather Stations






























Interactive Weather Map
Tropical Storm Tracking
New forecast layout! Learn more

10-Day Weather Forecast

Advertisements
Track Severe Weather on mobile